Todd G — WRC6671 — position and weather

sailwx.info

Track history (hours):
 
Tides and Currents Weather Stations Pressure Air Temp Water Temp Dewpoint Dewpoint Depression Visibility Wind Speed Wind Dir Waves Ship Positions

Todd G

Owner: Harbor Towing & Fleeting, Inc., Metairie, LA. More information available from US FCC via Universal Licensing System and Coast Guard Vessel Documentation Center.

Last reported at 2015-Apr-21 22:31 UTC. Time now 2015-Apr-21 23:27 UTC.
Position N 29°56' W 090°00'.

Length 16 m.

Type: Towing. MMSI: 366988470.

Date/timePositionNaut miles runAvg speedWind from/ knotsBaromVisibWave heightAir tempDewpointWater temp
2015-Apr-21 22:31N 29°56' W 090°00'0 0.0
2015-Apr-21 21:26N 29°56' W 090°00'0 0.0
2015-Apr-21 20:28N 29°56' W 090°00'0 0.2
2015-Apr-21 19:30N 29°56' W 090°00'0 0.2
2015-Apr-21 18:33N 29°56' W 090°00'0 0.0
2015-Apr-21 17:32N 29°56' W 090°00'0 0.0
2015-Apr-21 16:32N 29°56' W 090°00'0 0.0
2015-Apr-21 15:31N 29°56' W 090°00'1 0.9
2015-Apr-21 14:33N 29°57' W 090°01'2 1.9
2015-Apr-21 13:33N 29°57' W 090°03'0 0.1
2015-Apr-21 12:29N 29°57' W 090°03'0 0.5
2015-Apr-21 11:31N 29°57' W 090°03'2 1.5
2015-Apr-21 10:32N 29°58' W 090°01'2 1.7
2015-Apr-21 09:22N 29°60' W 089°60'1 0.8
2015-Apr-21 08:32N 29°60' W 090°01'2 2.0
2015-Apr-21 07:23N 29°58' W 090°02'0 0.0
2015-Apr-20 06:10N 29°57' W 090°02'1 1.0
2015-Apr-20 05:15N 29°58' W 090°01'0 0.1
2015-Apr-20 04:29N 29°58' W 090°01'1 1.4
2015-Apr-20 03:30N 29°60' W 090°01'2 2.0
2015-Apr-20 02:30N 29°58' W 090°02'2 1.9
2015-Apr-20 01:33N 29°56' W 090°00'0 0.3
2015-Apr-20 00:32N 29°56' W 090°00'0 0.0
2015-Apr-19 23:21N 29°56' W 090°00'1 0.5
2015-Apr-19 22:21N 29°56' W 089°60'1 0.8
2015-Apr-19 21:27N 29°56' W 089°59'1 1.6
2015-Apr-19 20:32N 29°56' W 090°00'0 0.0
2015-Apr-19 19:24N 29°56' W 090°00'0 0.0
2015-Apr-19 18:28N 29°56' W 090°00'0 0.0
2015-Apr-19 17:28N 29°56' W 090°00'0 0.0
2015-Apr-19 16:27N 29°56' W 090°00'0 0.0
2015-Apr-19 15:32N 29°56' W 090°00'0 0.0
2015-Apr-19 14:33N 29°56' W 090°00'0 0.1
2015-Apr-19 13:30N 29°56' W 090°00'2 2.2
2015-Apr-19 12:32N 29°58' W 090°02'1 0.7
2015-Apr-19 11:27N 29°58' W 090°02'0 0.3
2015-Apr-19 10:33N 29°58' W 090°02'0 0.2
2015-Apr-19 09:16N 29°58' W 090°02'0 0.0
2015-Apr-18 13:04N 29°58' W 090°02'7 4.1
2015-Apr-18 11:21N 30°01' W 089°54'1 0.4
2015-Apr-18 09:30N 30°01' W 089°53'6 6.6
2015-Apr-18 08:32N 29°60' W 090°01'2 2.4
2015-Apr-18 07:32N 29°58' W 090°02'1 1.1
2015-Apr-18 06:33N 29°57' W 090°01'1 0.6
2015-Apr-18 05:32N 29°56' W 090°00'2 2.0
2015-Apr-18 04:33N 29°58' W 090°02'1 1.5
2015-Apr-18 03:33N 29°59' W 090°01'7 6.0
2015-Apr-18 02:24N 30°01' W 089°53'1 0.7
2015-Apr-18 01:30N 30°01' W 089°54'6 6.3
2015-Apr-18 00:31N 29°59' W 090°01'2 1.5
2015-Apr-17 23:22N 29°58' W 090°02'1 1.1
2015-Apr-17 22:31N 29°57' W 090°01'1 0.0
2015-Apr-17 05:24N 29°56' W 090°00'8 1.9
2015-Apr-17 01:25N 30°01' W 089°53'6 5.6
2015-Apr-17 00:23N 29°60' W 090°00'2 2.9
2015-Apr-16 23:32N 29°58' W 090°02'0 0.4
2015-Apr-16 22:25N 29°57' W 090°02'0 0.0
2015-Apr-16 21:21N 29°57' W 090°02'0 0.1
2015-Apr-16 20:31N 29°57' W 090°02'0 0.4
2015-Apr-16 19:32N 29°57' W 090°01'0 0.0
2015-Apr-16 18:32N 29°57' W 090°01'0 0.3
2015-Apr-16 17:33N 29°57' W 090°01'1 1.2
2015-Apr-16 16:21N 29°56' W 089°60'1 0.8
2015-Apr-16 15:32N 29°56' W 090°00'0 0.0
2015-Apr-16 14:32N 29°56' W 090°00'0 0.0
2015-Apr-16 13:30N 29°56' W 090°00'0 0.0
2015-Apr-16 12:33N 29°56' W 090°00'0 0.0
2015-Apr-16 11:33N 29°56' W 090°00'0 0.0
2015-Apr-16 10:25N 29°56' W 090°00'0 0.1
2015-Apr-16 09:31N 29°56' W 090°00'2 2.1
2015-Apr-16 08:30N 29°55' W 089°58'0 0.3
2015-Apr-16 07:06N 29°55' W 089°58'4 7.4
2015-Apr-16 06:32N 29°58' W 090°02'1 0.9
2015-Apr-16 05:33N 29°58' W 090°01'0 0.0
2015-Apr-16 04:23N 29°58' W 090°01'1 0.1
2015-Apr-15 07:05N 29°57' W 090°01'1 1.1
2015-Apr-15 06:28N 29°58' W 090°02'0 0.1
2015-Apr-15 05:31N 29°58' W 090°02'2 2.2
2015-Apr-15 04:31N 29°60' W 090°00'1 1.3
2015-Apr-15 03:25N 29°59' W 090°01'1 1.5
2015-Apr-15 02:32N 29°58' W 090°02'2 1.5
2015-Apr-15 01:31N 29°56' W 090°00'2 1.9
2015-Apr-15 00:24N 29°58' W 090°02'1 0.9
2015-Apr-14 23:31N 29°58' W 090°02'2 2.3
2015-Apr-14 22:30N 29°60' W 090°00'1 0.6
2015-Apr-14 21:34N 29°60' W 089°59'0 0.0
2015-Apr-14 20:32N 29°60' W 089°59'0 0.0
2015-Apr-14 19:34N 29°60' W 089°59'0 0.1
2015-Apr-14 18:33N 29°60' W 089°59'0 0.0
2015-Apr-14 17:32N 29°60' W 089°59'2 1.8
2015-Apr-14 16:32N 29°59' W 090°01'1 1.4
2015-Apr-14 15:32N 29°58' W 090°02'2 1.8
2015-Apr-14 14:31N 29°56' W 090°00'2 0.2
2015-Apr-14 00:31N 29°58' W 090°01'2 2.1
2015-Apr-13 23:20N 29°60' W 089°59'2 2.3
2015-Apr-13 22:28N 29°59' W 090°01'0 0.0
2015-Apr-13 21:09N 29°59' W 090°01'6 2.2
2015-Apr-13 18:13N 30°01' W 089°54'3 3.9
2015-Apr-13 17:20N 30°00' W 089°58'3 3.9
2015-Apr-13 16:33N 29°59' W 090°01'1 0.9
2015-Apr-13 15:24N 29°58' W 090°02'0 0.5
2015-Apr-13 14:29N 29°57' W 090°02'1 1.3
2015-Apr-13 13:26N 29°56' W 090°00'0 0.0
2015-Apr-13 12:23N 29°56' W 090°00'0 0.0
2015-Apr-13 11:32N 29°56' W 090°00'0 0.0
2015-Apr-13 10:25N 29°56' W 090°00'0 0.0
2015-Apr-13 09:33N 29°56' W 090°00'0 0.0
2015-Apr-13 08:33N 29°56' W 090°00'2 2.0
2015-Apr-13 07:33N 29°58' W 090°02'2 2.3
2015-Apr-13 06:33N 29°60' W 089°60'2 1.8
2015-Apr-13 05:33N 29°59' W 090°01'2 1.6
2015-Apr-13 04:32N 29°57' W 090°01'1 0.9
2015-Apr-13 03:30N 29°56' W 090°00'0 0.0
2015-Apr-13 02:25N 29°56' W 090°00'0 0.3
2015-Apr-13 01:33N 29°56' W 090°00'0 0.1
2015-Apr-13 00:33N 29°56' W 090°00'0 0.2
2015-Apr-12 23:29N 29°56' W 090°00'0 0.2
2015-Apr-12 22:10N 29°56' W 090°00'  
Track history (hours):
 
Tides and Currents Weather Stations Pressure Air Temp Water Temp Dewpoint Dewpoint Depression Visibility Wind Speed Wind Dir Waves Ship Positions

Todd G

Owner: Harbor Towing & Fleeting, Inc., Metairie, LA. More information available from US FCC via Universal Licensing System and Coast Guard Vessel Documentation Center.

Last reported at 2015-Apr-21 22:31 UTC. Time now 2015-Apr-21 23:27 UTC.
Position N 29°56' W 090°00'.

Length 16 m.

Type: Towing. MMSI: 366988470.

Date/timePositionNaut miles runAvg speedWind from/ knotsBaromVisibWave heightAir tempDewpointWater temp
2015-Apr-21 22:31N 29°56' W 090°00'0 0.0
2015-Apr-21 21:26N 29°56' W 090°00'0 0.0
2015-Apr-21 20:28N 29°56' W 090°00'0 0.2
2015-Apr-21 19:30N 29°56' W 090°00'0 0.2
2015-Apr-21 18:33N 29°56' W 090°00'0 0.0
2015-Apr-21 17:32N 29°56' W 090°00'0 0.0
2015-Apr-21 16:32N 29°56' W 090°00'0 0.0
2015-Apr-21 15:31N 29°56' W 090°00'1 0.9
2015-Apr-21 14:33N 29°57' W 090°01'2 1.9
2015-Apr-21 13:33N 29°57' W 090°03'0 0.1
2015-Apr-21 12:29N 29°57' W 090°03'0 0.5
2015-Apr-21 11:31N 29°57' W 090°03'2 1.5
2015-Apr-21 10:32N 29°58' W 090°01'2 1.7
2015-Apr-21 09:22N 29°60' W 089°60'1 0.8
2015-Apr-21 08:32N 29°60' W 090°01'2 2.0
2015-Apr-21 07:23N 29°58' W 090°02'0 0.0
2015-Apr-20 06:10N 29°57' W 090°02'1 1.0
2015-Apr-20 05:15N 29°58' W 090°01'0 0.1
2015-Apr-20 04:29N 29°58' W 090°01'1 1.4
2015-Apr-20 03:30N 29°60' W 090°01'2 2.0
2015-Apr-20 02:30N 29°58' W 090°02'2 1.9
2015-Apr-20 01:33N 29°56' W 090°00'0 0.3
2015-Apr-20 00:32N 29°56' W 090°00'0 0.0
2015-Apr-19 23:21N 29°56' W 090°00'1 0.5
2015-Apr-19 22:21N 29°56' W 089°60'1 0.8
2015-Apr-19 21:27N 29°56' W 089°59'1 1.6
2015-Apr-19 20:32N 29°56' W 090°00'0 0.0
2015-Apr-19 19:24N 29°56' W 090°00'0 0.0
2015-Apr-19 18:28N 29°56' W 090°00'0 0.0
2015-Apr-19 17:28N 29°56' W 090°00'0 0.0
2015-Apr-19 16:27N 29°56' W 090°00'0 0.0
2015-Apr-19 15:32N 29°56' W 090°00'0 0.0
2015-Apr-19 14:33N 29°56' W 090°00'0 0.1
2015-Apr-19 13:30N 29°56' W 090°00'2 2.2
2015-Apr-19 12:32N 29°58' W 090°02'1 0.7
2015-Apr-19 11:27N 29°58' W 090°02'0 0.3
2015-Apr-19 10:33N 29°58' W 090°02'0 0.2
2015-Apr-19 09:16N 29°58' W 090°02'0 0.0
2015-Apr-18 13:04N 29°58' W 090°02'7 4.1
2015-Apr-18 11:21N 30°01' W 089°54'1 0.4
2015-Apr-18 09:30N 30°01' W 089°53'6 6.6
2015-Apr-18 08:32N 29°60' W 090°01'2 2.4
2015-Apr-18 07:32N 29°58' W 090°02'1 1.1
2015-Apr-18 06:33N 29°57' W 090°01'1 0.6
2015-Apr-18 05:32N 29°56' W 090°00'2 2.0
2015-Apr-18 04:33N 29°58' W 090°02'1 1.5
2015-Apr-18 03:33N 29°59' W 090°01'7 6.0
2015-Apr-18 02:24N 30°01' W 089°53'1 0.7
2015-Apr-18 01:30N 30°01' W 089°54'6 6.3
2015-Apr-18 00:31N 29°59' W 090°01'2 1.5
2015-Apr-17 23:22N 29°58' W 090°02'1 1.1
2015-Apr-17 22:31N 29°57' W 090°01'1 0.0
2015-Apr-17 05:24N 29°56' W 090°00'8 1.9
2015-Apr-17 01:25N 30°01' W 089°53'6 5.6
2015-Apr-17 00:23N 29°60' W 090°00'2 2.9
2015-Apr-16 23:32N 29°58' W 090°02'0 0.4
2015-Apr-16 22:25N 29°57' W 090°02'0 0.0
2015-Apr-16 21:21N 29°57' W 090°02'0 0.1
2015-Apr-16 20:31N 29°57' W 090°02'0 0.4
2015-Apr-16 19:32N 29°57' W 090°01'0 0.0
2015-Apr-16 18:32N 29°57' W 090°01'0 0.3
2015-Apr-16 17:33N 29°57' W 090°01'1 1.2
2015-Apr-16 16:21N 29°56' W 089°60'1 0.8
2015-Apr-16 15:32N 29°56' W 090°00'0 0.0
2015-Apr-16 14:32N 29°56' W 090°00'0 0.0
2015-Apr-16 13:30N 29°56' W 090°00'0 0.0
2015-Apr-16 12:33N 29°56' W 090°00'0 0.0
2015-Apr-16 11:33N 29°56' W 090°00'0 0.0
2015-Apr-16 10:25N 29°56' W 090°00'0 0.1
2015-Apr-16 09:31N 29°56' W 090°00'2 2.1
2015-Apr-16 08:30N 29°55' W 089°58'0 0.3
2015-Apr-16 07:06N 29°55' W 089°58'4 7.4
2015-Apr-16 06:32N 29°58' W 090°02'1 0.9
2015-Apr-16 05:33N 29°58' W 090°01'0 0.0
2015-Apr-16 04:23N 29°58' W 090°01'1 0.1
2015-Apr-15 07:05N 29°57' W 090°01'1 1.1
2015-Apr-15 06:28N 29°58' W 090°02'0 0.1
2015-Apr-15 05:31N 29°58' W 090°02'2 2.2
2015-Apr-15 04:31N 29°60' W 090°00'1 1.3
2015-Apr-15 03:25N 29°59' W 090°01'1 1.5
2015-Apr-15 02:32N 29°58' W 090°02'2 1.5
2015-Apr-15 01:31N 29°56' W 090°00'2 1.9
2015-Apr-15 00:24N 29°58' W 090°02'1 0.9
2015-Apr-14 23:31N 29°58' W 090°02'2 2.3
2015-Apr-14 22:30N 29°60' W 090°00'1 0.6
2015-Apr-14 21:34N 29°60' W 089°59'0 0.0
2015-Apr-14 20:32N 29°60' W 089°59'0 0.0
2015-Apr-14 19:34N 29°60' W 089°59'0 0.1
2015-Apr-14 18:33N 29°60' W 089°59'0 0.0
2015-Apr-14 17:32N 29°60' W 089°59'2 1.8
2015-Apr-14 16:32N 29°59' W 090°01'1 1.4
2015-Apr-14 15:32N 29°58' W 090°02'2 1.8
2015-Apr-14 14:31N 29°56' W 090°00'2 0.2
2015-Apr-14 00:31N 29°58' W 090°01'2 2.1
2015-Apr-13 23:20N 29°60' W 089°59'2 2.3
2015-Apr-13 22:28N 29°59' W 090°01'0 0.0
2015-Apr-13 21:09N 29°59' W 090°01'6 2.2
2015-Apr-13 18:13N 30°01' W 089°54'3 3.9
2015-Apr-13 17:20N 30°00' W 089°58'3 3.9
2015-Apr-13 16:33N 29°59' W 090°01'1 0.9
2015-Apr-13 15:24N 29°58' W 090°02'0 0.5
2015-Apr-13 14:29N 29°57' W 090°02'1 1.3
2015-Apr-13 13:26N 29°56' W 090°00'0 0.0
2015-Apr-13 12:23N 29°56' W 090°00'0 0.0
2015-Apr-13 11:32N 29°56' W 090°00'0 0.0
2015-Apr-13 10:25N 29°56' W 090°00'0 0.0
2015-Apr-13 09:33N 29°56' W 090°00'0 0.0
2015-Apr-13 08:33N 29°56' W 090°00'2 2.0
2015-Apr-13 07:33N 29°58' W 090°02'2 2.3
2015-Apr-13 06:33N 29°60' W 089°60'2 1.8
2015-Apr-13 05:33N 29°59' W 090°01'2 1.6
2015-Apr-13 04:32N 29°57' W 090°01'1 0.9
2015-Apr-13 03:30N 29°56' W 090°00'0 0.0
2015-Apr-13 02:25N 29°56' W 090°00'0 0.3
2015-Apr-13 01:33N 29°56' W 090°00'0 0.1
2015-Apr-13 00:33N 29°56' W 090°00'0 0.2
2015-Apr-12 23:29N 29°56' W 090°00'0 0.2
2015-Apr-12 22:10N 29°56' W 090°00'  

Dump ship's entire track history